createdAt,value
2023-04-17T00:01:00.402Z,99.90
2023-04-17T00:03:28.322Z,99.90
2023-04-17T00:05:56.693Z,99.90
2023-04-17T00:08:24.476Z,99.90
2023-04-17T00:11:00.674Z,99.90
2023-04-17T00:13:34.805Z,99.90
2023-04-17T00:16:02.900Z,99.90
2023-04-17T00:18:30.869Z,99.90
2023-04-17T00:20:58.667Z,99.90
2023-04-17T00:23:27.313Z,99.90
2023-04-17T00:25:56.355Z,99.90
2023-04-17T00:28:24.670Z,99.90
2023-04-17T00:30:52.429Z,99.90
2023-04-17T00:33:20.427Z,99.90
2023-04-17T00:35:48.141Z,99.90
2023-04-17T00:38:15.950Z,99.90
2023-04-17T00:40:45.325Z,99.90
2023-04-17T00:43:14.469Z,99.90
2023-04-17T00:45:42.823Z,99.90
2023-04-17T00:48:13.137Z,99.90
2023-04-17T00:50:40.944Z,99.90
2023-04-17T00:53:08.712Z,99.90
2023-04-17T00:55:38.916Z,99.90
2023-04-17T00:58:07.106Z,99.90
2023-04-17T01:00:36.545Z,99.90
2023-04-17T01:03:05.121Z,99.90
2023-04-17T01:05:35.399Z,99.90
2023-04-17T01:08:03.188Z,99.90
2023-04-17T01:10:30.968Z,99.90
2023-04-17T01:13:05.271Z,99.90
2023-04-17T01:15:33.168Z,99.90
2023-04-17T01:18:03.044Z,99.90
2023-04-17T01:20:31.308Z,99.90
2023-04-17T01:22:59.538Z,99.90
2023-04-17T01:25:29.300Z,99.90
2023-04-17T01:27:57.385Z,99.90
2023-04-17T01:30:25.714Z,99.90
2023-04-17T01:32:55.053Z,99.90
2023-04-17T01:35:23.172Z,99.90
2023-04-17T01:37:51.168Z,99.90
2023-04-17T01:40:19.109Z,99.90
2023-04-17T01:42:48.243Z,99.90
2023-04-17T01:45:16.059Z,99.90
2023-04-17T01:47:43.881Z,99.90
2023-04-17T01:50:12.922Z,99.90
2023-04-17T01:52:40.751Z,99.90
2023-04-17T01:55:09.064Z,99.90
2023-04-17T01:57:36.807Z,99.90
2023-04-17T02:00:08.146Z,99.90
2023-04-17T02:02:36.025Z,99.90
2023-04-17T02:05:04.057Z,99.90
2023-04-17T02:07:31.797Z,99.90
2023-04-17T02:09:59.550Z,99.90
2023-04-17T02:12:27.252Z,99.90
2023-04-17T02:14:55.063Z,99.90
2023-04-17T02:17:24.220Z,99.90
2023-04-17T02:19:52.059Z,99.90
2023-04-17T02:22:19.786Z,99.90
2023-04-17T02:24:47.552Z,99.90
2023-04-17T02:27:15.558Z,99.90
2023-04-17T02:29:43.302Z,99.90
2023-04-17T02:32:11.247Z,99.90
2023-04-17T02:34:40.645Z,99.90
2023-04-17T02:37:08.425Z,99.90
2023-04-17T02:39:36.178Z,99.90
2023-04-17T02:42:04.080Z,99.90
2023-04-17T02:44:31.921Z,99.90
2023-04-17T02:46:59.670Z,99.90
2023-04-17T02:49:27.397Z,99.90
2023-04-17T02:51:56.656Z,99.90
2023-04-17T02:54:24.384Z,99.90
2023-04-17T02:56:53.250Z,99.90
2023-04-17T02:59:20.978Z,99.90
2023-04-17T03:01:48.767Z,99.90
2023-04-17T03:04:16.606Z,99.90
2023-04-17T03:06:44.392Z,99.90
2023-04-17T03:09:14.728Z,99.90
2023-04-17T03:11:42.440Z,99.90
2023-04-17T03:14:10.265Z,99.90
2023-04-17T03:16:37.960Z,99.90
2023-04-17T03:19:05.727Z,99.90
2023-04-17T03:21:33.542Z,99.90
2023-04-17T03:24:01.512Z,99.90
2023-04-17T03:26:30.653Z,99.90
2023-04-17T03:28:58.405Z,99.90
2023-04-17T03:31:27.833Z,99.90
2023-04-17T03:33:55.703Z,99.90
2023-04-17T03:36:23.469Z,99.90
2023-04-17T03:38:51.241Z,99.90
2023-04-17T03:41:18.934Z,99.90
2023-04-17T03:43:48.022Z,99.90
2023-04-17T03:46:16.101Z,99.90
2023-04-17T03:48:43.889Z,99.90
2023-04-17T03:51:11.604Z,99.90
2023-04-17T03:53:39.671Z,99.90
2023-04-17T03:56:07.671Z,99.90
2023-04-17T03:58:35.485Z,99.90
2023-04-17T04:01:04.619Z,99.90
2023-04-17T04:03:32.686Z,99.90
2023-04-17T04:06:00.589Z,99.90
2023-04-17T04:08:28.272Z,99.90
2023-04-17T04:10:56.083Z,99.90
2023-04-17T04:13:23.849Z,99.90
2023-04-17T04:15:51.709Z,99.90
2023-04-17T04:18:20.818Z,99.90
2023-04-17T04:20:48.551Z,99.90
2023-04-17T04:23:16.935Z,99.90
2023-04-17T04:25:44.713Z,99.90
2023-04-17T04:28:13.211Z,99.90
2023-04-17T04:30:40.963Z,99.90
2023-04-17T04:33:09.261Z,99.90
2023-04-17T04:35:38.635Z,99.90
2023-04-17T04:38:06.379Z,99.90
2023-04-17T04:40:35.905Z,99.90
2023-04-17T04:43:04.298Z,99.90
2023-04-17T04:45:32.033Z,99.90
2023-04-17T04:47:59.840Z,99.90
2023-04-17T04:50:27.730Z,99.90
2023-04-17T04:52:56.779Z,99.90
2023-04-17T04:55:24.599Z,99.90
2023-04-17T04:57:54.031Z,99.90
2023-04-17T05:00:22.002Z,99.90
2023-04-17T05:02:49.902Z,99.90
2023-04-17T05:05:17.893Z,99.90
2023-04-17T05:07:45.971Z,99.90
2023-04-17T05:10:15.160Z,99.90
2023-04-17T05:12:44.260Z,99.90
2023-04-17T05:15:12.945Z,99.90
2023-04-17T05:17:41.737Z,99.90
2023-04-17T05:20:12.220Z,99.90
2023-04-17T05:22:39.996Z,99.90
2023-04-17T05:25:08.413Z,99.90
2023-04-17T05:27:37.680Z,99.90
2023-04-17T05:30:06.353Z,99.90
2023-04-17T05:32:35.025Z,99.90
2023-04-17T05:35:02.876Z,99.90
2023-04-17T05:37:30.599Z,99.90
2023-04-17T05:40:00.054Z,99.90
2023-04-17T05:42:27.846Z,99.90
2023-04-17T05:44:56.886Z,99.90
2023-04-17T05:47:25.234Z,99.90
2023-04-17T05:49:57.379Z,99.90
2023-04-17T05:52:25.400Z,99.90
2023-04-17T05:54:53.198Z,99.90
2023-04-17T05:57:20.897Z,99.90
2023-04-17T05:59:49.032Z,99.90
2023-04-17T06:02:18.602Z,99.90
2023-04-17T06:04:47.281Z,99.90
2023-04-17T06:07:15.205Z,99.90
2023-04-17T06:09:43.025Z,99.90
2023-04-17T06:12:15.881Z,99.90
2023-04-17T06:14:44.276Z,99.90
2023-04-17T06:17:12.522Z,99.90
2023-04-17T06:19:41.701Z,99.90
2023-04-17T06:22:09.545Z,99.90
2023-04-17T06:24:37.985Z,99.90
2023-04-17T06:27:05.776Z,99.90
2023-04-17T06:29:33.520Z,99.90
2023-04-17T06:32:01.263Z,99.90
2023-04-17T06:34:29.030Z,99.90
2023-04-17T06:36:58.964Z,99.90
2023-04-17T06:39:27.327Z,99.90
2023-04-17T06:41:56.069Z,99.90
2023-04-17T06:44:23.950Z,99.90
2023-04-17T06:46:53.672Z,99.90
2023-04-17T06:49:21.804Z,99.90
2023-04-17T06:51:49.600Z,99.90
2023-04-17T06:54:18.880Z,99.90
2023-04-17T06:56:46.654Z,99.90
2023-04-17T06:59:14.471Z,99.90
2023-04-17T07:01:42.343Z,99.90
2023-04-17T07:04:10.810Z,99.90
2023-04-17T07:06:39.504Z,98.00
2023-04-17T07:09:07.291Z,96.20
2023-04-17T07:11:36.377Z,95.00
2023-04-17T07:14:04.173Z,93.70
2023-04-17T07:16:32.013Z,89.20
2023-04-17T07:18:59.832Z,86.30
2023-04-17T07:21:28.060Z,87.00
2023-04-17T07:23:55.855Z,90.10
2023-04-17T07:26:23.608Z,91.50
2023-04-17T07:28:52.708Z,92.00
2023-04-17T07:31:22.095Z,92.00
2023-04-17T07:33:50.462Z,91.80
2023-04-17T07:36:18.614Z,91.80
2023-04-17T07:38:46.333Z,92.00
2023-04-17T07:41:14.060Z,91.20
2023-04-17T07:43:42.015Z,89.70
2023-04-17T07:46:11.063Z,87.90
2023-04-17T07:48:38.881Z,85.00
2023-04-17T07:51:07.572Z,83.20
2023-04-17T07:53:37.272Z,82.80
2023-04-17T07:56:06.230Z,78.80
2023-04-17T07:58:35.568Z,74.40
2023-04-17T08:01:06.542Z,71.10
2023-04-17T08:03:41.422Z,70.60
2023-04-17T08:06:11.576Z,72.30
2023-04-17T08:08:41.348Z,75.40
2023-04-17T08:11:10.998Z,77.10
2023-04-17T08:13:40.799Z,79.20
2023-04-17T08:16:11.085Z,80.30
2023-04-17T08:18:42.600Z,81.10
2023-04-17T08:21:12.352Z,81.30
2023-04-17T08:23:42.543Z,80.50
2023-04-17T08:26:12.813Z,79.80
2023-04-17T08:28:42.569Z,78.20
2023-04-17T08:31:11.971Z,77.20
2023-04-17T08:33:43.305Z,76.60
2023-04-17T08:36:12.926Z,75.90
2023-04-17T08:38:43.876Z,74.20
2023-04-17T08:41:20.607Z,73.30
2023-04-17T08:43:52.371Z,74.70
2023-04-17T08:46:24.485Z,74.80
2023-04-17T08:48:55.946Z,73.50
2023-04-17T08:51:28.948Z,74.40
2023-04-17T08:53:58.801Z,75.10
2023-04-17T08:56:30.461Z,73.80
2023-04-17T08:58:58.327Z,73.10
2023-04-17T09:01:26.219Z,72.30
2023-04-17T09:03:56.964Z,71.90
2023-04-17T09:06:24.931Z,69.50
2023-04-17T09:08:58.128Z,64.30
2023-04-17T09:11:26.264Z,62.00
2023-04-17T09:13:54.315Z,62.70
2023-04-17T09:16:24.297Z,62.90
2023-04-17T09:18:52.069Z,64.70
2023-04-17T09:21:21.124Z,63.50
2023-04-17T09:23:51.701Z,63.70
2023-04-17T09:26:22.859Z,62.00
2023-04-17T09:29:07.485Z,63.20
2023-04-17T09:31:36.197Z,65.50
2023-04-17T09:34:05.663Z,66.60
2023-04-17T09:36:38.135Z,67.30
2023-04-17T09:39:17.025Z,68.20
2023-04-17T09:41:44.766Z,66.40
2023-04-17T09:44:13.028Z,65.40
2023-04-17T09:46:45.812Z,66.10
2023-04-17T09:49:18.860Z,66.50
2023-04-17T09:51:49.193Z,67.90
2023-04-17T09:54:18.099Z,67.50
2023-04-17T09:56:49.491Z,69.50
2023-04-17T09:59:17.546Z,70.70
2023-04-17T10:01:46.518Z,72.70
2023-04-17T10:04:14.970Z,73.30
2023-04-17T10:06:44.190Z,74.20
2023-04-17T10:09:13.315Z,75.00
2023-04-17T10:11:45.611Z,77.20
2023-04-17T10:14:25.425Z,78.00
2023-04-17T10:16:53.805Z,79.30
2023-04-17T10:19:28.605Z,80.00
2023-04-17T10:22:30.030Z,80.70
2023-04-17T10:25:21.132Z,80.70
2023-04-17T10:27:58.131Z,81.70
2023-04-17T10:30:46.474Z,79.90
2023-04-17T10:33:30.756Z,77.30
2023-04-17T10:35:58.522Z,78.20
2023-04-17T10:38:36.631Z,77.90
2023-04-17T10:41:09.300Z,75.60
2023-04-17T10:43:41.499Z,75.70
2023-04-17T10:46:12.137Z,75.50
2023-04-17T10:48:42.212Z,75.10
2023-04-17T10:51:41.689Z,76.20
2023-04-17T10:54:13.503Z,76.50
2023-04-17T10:56:45.965Z,74.80
2023-04-17T10:59:15.741Z,73.40
2023-04-17T11:02:00.562Z,74.70
2023-04-17T11:04:31.539Z,72.70
2023-04-17T11:06:59.546Z,72.20
2023-04-17T11:09:29.576Z,71.40
2023-04-17T11:12:02.678Z,71.30
2023-04-17T11:14:30.641Z,71.60
2023-04-17T11:16:58.544Z,70.00
2023-04-17T11:19:27.048Z,69.50
2023-04-17T11:21:57.153Z,71.30
2023-04-17T11:24:25.505Z,71.20
2023-04-17T11:26:53.816Z,70.50
2023-04-17T11:29:24.473Z,71.30
2023-04-17T11:31:53.844Z,70.70
2023-04-17T11:34:21.923Z,70.20
2023-04-17T11:36:50.313Z,68.40
2023-04-17T11:39:19.135Z,66.70
2023-04-17T11:41:47.380Z,66.30
2023-04-17T11:44:15.833Z,68.10
2023-04-17T11:46:50.371Z,68.40
2023-04-17T11:49:24.360Z,66.80
2023-04-17T11:51:52.592Z,65.90
2023-04-17T11:54:27.395Z,65.70
2023-04-17T11:57:02.902Z,64.60
2023-04-17T11:59:32.247Z,65.60
2023-04-17T12:02:02.331Z,64.00
2023-04-17T12:04:33.451Z,66.40
2023-04-17T12:07:01.783Z,66.40
2023-04-17T12:09:31.782Z,67.20
2023-04-17T12:11:59.928Z,66.90
2023-04-17T12:14:27.666Z,67.10
2023-04-17T12:16:55.436Z,67.90
2023-04-17T12:19:26.527Z,69.70
2023-04-17T12:21:54.328Z,70.60
2023-04-17T12:24:24.193Z,70.60
2023-04-17T12:26:52.887Z,71.70
2023-04-17T12:29:29.588Z,72.70
2023-04-17T12:32:04.822Z,71.80
2023-04-17T12:34:34.495Z,71.90
2023-04-17T12:37:02.308Z,72.10
2023-04-17T12:39:30.050Z,71.70
2023-04-17T12:41:58.032Z,71.50
2023-04-17T12:44:25.819Z,69.70
2023-04-17T12:46:54.941Z,68.90
2023-04-17T12:49:23.656Z,67.40
2023-04-17T12:51:52.956Z,67.30
2023-04-17T12:54:20.813Z,67.50
2023-04-17T12:56:48.714Z,67.60
2023-04-17T12:59:16.923Z,67.10
2023-04-17T13:01:44.756Z,66.50
2023-04-17T13:04:13.029Z,67.20
2023-04-17T13:06:41.231Z,68.00
2023-04-17T13:09:10.927Z,66.00
2023-04-17T13:11:38.951Z,65.60
2023-04-17T13:14:07.383Z,67.00
2023-04-17T13:16:35.331Z,67.40
2023-04-17T13:19:03.076Z,65.80
2023-04-17T13:21:30.872Z,66.40
2023-04-17T13:23:58.573Z,66.60
2023-04-17T13:26:27.724Z,66.40
2023-04-17T13:28:55.452Z,67.60
2023-04-17T13:31:24.585Z,67.10
2023-04-17T13:33:52.477Z,67.00
2023-04-17T13:36:20.361Z,67.80
2023-04-17T13:38:48.086Z,67.10
2023-04-17T13:41:15.856Z,66.80
2023-04-17T13:43:45.145Z,66.20
2023-04-17T13:46:16.097Z,66.50
2023-04-17T13:48:44.097Z,66.70
2023-04-17T13:51:11.993Z,67.00
2023-04-17T13:53:39.789Z,66.90
2023-04-17T13:56:07.678Z,67.30
2023-04-17T13:58:35.804Z,67.80
2023-04-17T14:01:04.913Z,68.10
2023-04-17T14:03:32.764Z,68.00
2023-04-17T14:06:00.586Z,66.80
2023-04-17T14:08:28.335Z,68.00
2023-04-17T14:10:56.100Z,69.20
2023-04-17T14:13:23.851Z,68.60
2023-04-17T14:15:53.514Z,68.80
2023-04-17T14:18:24.579Z,69.20
2023-04-17T14:20:53.910Z,69.00
2023-04-17T14:23:21.681Z,69.90
2023-04-17T14:25:49.476Z,70.10
2023-04-17T14:28:18.419Z,69.50
2023-04-17T14:30:46.259Z,70.60
2023-04-17T14:33:14.183Z,70.70
2023-04-17T14:35:43.339Z,71.20
2023-04-17T14:38:11.194Z,72.30
2023-04-17T14:40:38.924Z,72.50
2023-04-17T14:43:07.038Z,71.30
2023-04-17T14:45:36.568Z,71.20
2023-04-17T14:48:04.647Z,71.50
2023-04-17T14:50:32.435Z,71.90
2023-04-17T14:53:01.628Z,72.70
2023-04-17T14:55:29.974Z,73.30
2023-04-17T14:57:57.989Z,72.30
2023-04-17T15:00:25.810Z,71.20
2023-04-17T15:02:53.674Z,71.30
2023-04-17T15:05:22.392Z,72.20
2023-04-17T15:07:50.262Z,71.90
2023-04-17T15:10:19.316Z,71.50
2023-04-17T15:12:47.110Z,71.40
2023-04-17T15:15:14.970Z,72.30
2023-04-17T15:17:42.832Z,72.20
2023-04-17T15:20:10.908Z,72.80
2023-04-17T15:22:38.645Z,71.70
2023-04-17T15:25:07.066Z,73.00
2023-04-17T15:27:36.167Z,72.30
2023-04-17T15:30:06.516Z,73.00
2023-04-17T15:32:34.274Z,72.80
2023-04-17T15:35:01.969Z,72.60
2023-04-17T15:37:29.730Z,72.30
2023-04-17T15:39:57.549Z,72.40
2023-04-17T15:42:27.021Z,72.80
2023-04-17T15:44:56.137Z,73.60
2023-04-17T15:47:23.944Z,73.60
2023-04-17T15:49:51.664Z,73.60
2023-04-17T15:52:19.441Z,73.90
2023-04-17T15:54:47.228Z,73.60
2023-04-17T15:57:15.005Z,75.50
2023-04-17T15:59:42.790Z,75.40
2023-04-17T16:02:13.750Z,75.60
2023-04-17T16:04:43.431Z,75.60
2023-04-17T16:07:13.051Z,75.30
2023-04-17T16:09:41.325Z,75.30
2023-04-17T16:12:10.476Z,74.50
2023-04-17T16:14:38.816Z,74.50
2023-04-17T16:17:06.791Z,75.20
2023-04-17T16:19:36.259Z,76.50
2023-04-17T16:22:04.059Z,75.90
2023-04-17T16:24:31.847Z,75.70
2023-04-17T16:27:01.408Z,75.50
2023-04-17T16:29:29.277Z,75.70
2023-04-17T16:31:57.399Z,75.60
2023-04-17T16:34:25.183Z,76.60
2023-04-17T16:36:54.226Z,77.30
2023-04-17T16:39:21.979Z,77.60
2023-04-17T16:41:52.044Z,77.50
2023-04-17T16:44:19.785Z,77.80
2023-04-17T16:47:09.540Z,78.90
2023-04-17T16:49:35.279Z,79.20
2023-04-17T16:52:04.470Z,79.40
2023-04-17T16:54:32.465Z,78.30
2023-04-17T16:57:00.602Z,78.70
2023-04-17T16:59:28.340Z,79.60
2023-04-17T17:01:56.259Z,78.90
2023-04-17T17:04:24.045Z,79.40
2023-04-17T17:06:51.846Z,80.00
2023-04-17T17:09:21.041Z,80.30
2023-04-17T17:11:48.918Z,81.00
2023-04-17T17:14:16.953Z,82.10
2023-04-17T17:16:44.755Z,81.40
2023-04-17T17:19:12.739Z,82.00
2023-04-17T17:21:40.612Z,82.30
2023-04-17T17:24:08.488Z,83.30
2023-04-17T17:26:37.695Z,85.20
2023-04-17T17:29:05.637Z,86.00
2023-04-17T17:31:34.498Z,85.70
2023-04-17T17:34:16.730Z,84.90
2023-04-17T17:36:50.343Z,82.40
2023-04-17T17:39:18.107Z,80.70
2023-04-17T17:41:47.608Z,81.90
2023-04-17T17:44:15.654Z,81.60
2023-04-17T17:46:43.629Z,82.30
2023-04-17T17:49:11.665Z,81.50
2023-04-17T17:51:39.413Z,82.80
2023-04-17T17:54:07.798Z,82.20
2023-04-17T17:56:35.829Z,82.60
2023-04-17T17:59:04.980Z,82.50
2023-04-17T18:01:33.130Z,81.80
2023-04-17T18:04:01.077Z,80.30
2023-04-17T18:06:29.017Z,79.80
2023-04-17T18:08:58.550Z,80.60
2023-04-17T18:11:27.101Z,81.70
2023-04-17T18:13:54.781Z,83.00
2023-04-17T18:16:24.826Z,82.20
2023-04-17T18:18:52.765Z,80.80
2023-04-17T18:21:20.468Z,81.50
2023-04-17T18:23:48.306Z,81.80
2023-04-17T18:26:16.191Z,80.80
2023-04-17T18:28:43.945Z,80.50
2023-04-17T18:31:12.413Z,81.50
2023-04-17T18:33:41.560Z,81.60
2023-04-17T18:36:09.901Z,82.00
2023-04-17T18:38:37.625Z,79.60
2023-04-17T18:41:05.398Z,78.30
2023-04-17T18:43:33.185Z,78.60
2023-04-17T18:46:04.367Z,79.00
2023-04-17T18:48:32.081Z,80.10
2023-04-17T18:51:09.469Z,80.60
2023-04-17T18:53:37.307Z,82.10
2023-04-17T18:56:06.507Z,82.20
2023-04-17T18:58:34.317Z,82.00
2023-04-17T19:01:02.199Z,83.00
2023-04-17T19:03:30.142Z,82.30
2023-04-17T19:05:57.914Z,82.40
2023-04-17T19:08:27.050Z,82.30
2023-04-17T19:10:55.083Z,82.40
2023-04-17T19:13:22.836Z,82.20
2023-04-17T19:15:50.743Z,81.70
2023-04-17T19:18:18.641Z,81.70
2023-04-17T19:20:47.776Z,81.40
2023-04-17T19:23:15.759Z,80.50
2023-04-17T19:25:44.910Z,80.50
2023-04-17T19:28:13.315Z,81.00
2023-04-17T19:30:41.152Z,81.30
2023-04-17T19:33:09.296Z,81.00
2023-04-17T19:35:37.078Z,81.60
2023-04-17T19:38:04.860Z,80.90
2023-04-17T19:40:32.591Z,81.50
2023-04-17T19:43:03.334Z,80.70
2023-04-17T19:45:33.029Z,80.30
2023-04-17T19:48:01.269Z,78.80
2023-04-17T19:50:30.549Z,76.60
2023-04-17T19:52:59.144Z,76.40
2023-04-17T19:55:26.919Z,75.30
2023-04-17T19:57:56.840Z,73.80
2023-04-17T20:00:26.763Z,73.00
2023-04-17T20:02:54.621Z,72.70
2023-04-17T20:05:22.559Z,71.80
2023-04-17T20:07:50.499Z,71.60
2023-04-17T20:10:18.798Z,72.40
2023-04-17T20:12:47.003Z,72.60
2023-04-17T20:15:19.646Z,72.40
2023-04-17T20:17:48.917Z,73.30
2023-04-17T20:20:16.663Z,73.90
2023-04-17T20:22:44.569Z,73.30
2023-04-17T20:25:12.419Z,71.70
2023-04-17T20:27:40.250Z,70.20
2023-04-17T20:30:09.158Z,69.40
2023-04-17T20:32:36.988Z,69.70
2023-04-17T20:35:06.918Z,68.40
2023-04-17T20:37:34.785Z,69.80
2023-04-17T20:40:02.619Z,70.10
2023-04-17T20:42:30.472Z,71.20
2023-04-17T20:44:59.522Z,71.90
2023-04-17T20:47:27.290Z,73.70
2023-04-17T20:49:55.116Z,74.30
2023-04-17T20:52:24.276Z,75.10
2023-04-17T20:54:52.081Z,74.30
2023-04-17T20:57:19.889Z,74.20
2023-04-17T20:59:47.733Z,71.40
2023-04-17T21:02:16.234Z,70.60
2023-04-17T21:04:44.978Z,71.30
2023-04-17T21:07:12.855Z,71.90
2023-04-17T21:09:41.966Z,71.60
2023-04-17T21:12:10.142Z,72.10
2023-04-17T21:14:38.072Z,73.30
2023-04-17T21:17:05.863Z,74.00
2023-04-17T21:19:36.614Z,74.70
2023-04-17T21:22:04.606Z,74.30
2023-04-17T21:24:32.407Z,74.10
2023-04-17T21:27:02.405Z,74.60
2023-04-17T21:29:30.346Z,74.70
2023-04-17T21:31:58.227Z,74.90
2023-04-17T21:34:26.154Z,74.60
2023-04-17T21:36:54.372Z,74.50
2023-04-17T21:39:22.206Z,74.70
2023-04-17T21:41:49.916Z,76.60
2023-04-17T21:44:19.002Z,75.70
2023-04-17T21:46:46.849Z,76.10
2023-04-17T21:49:14.586Z,76.90
2023-04-17T21:51:42.340Z,76.50
2023-04-17T21:54:10.621Z,75.50
2023-04-17T21:56:38.481Z,75.50
2023-04-17T21:59:06.266Z,76.20
2023-04-17T22:01:35.490Z,76.30
2023-04-17T22:04:03.371Z,76.10
2023-04-17T22:06:31.165Z,75.60
2023-04-17T22:08:58.903Z,76.10
2023-04-17T22:11:26.639Z,76.40
2023-04-17T22:13:54.349Z,76.60
2023-04-17T22:16:22.078Z,77.20
2023-04-17T22:18:51.214Z,78.40
2023-04-17T22:21:19.010Z,76.80
2023-04-17T22:23:46.812Z,75.70
2023-04-17T22:26:14.597Z,76.40
2023-04-17T22:28:42.348Z,75.40
2023-04-17T22:31:10.862Z,74.60
2023-04-17T22:33:38.631Z,74.60
2023-04-17T22:36:08.248Z,74.80
2023-04-17T22:38:36.108Z,74.60
2023-04-17T22:41:04.236Z,74.80
2023-04-17T22:43:32.139Z,76.20
2023-04-17T22:45:59.900Z,77.20
2023-04-17T22:48:28.275Z,76.20
2023-04-17T22:50:56.630Z,75.30
2023-04-17T22:53:26.055Z,75.80
2023-04-17T22:56:03.232Z,76.70
2023-04-17T22:58:33.163Z,76.40
2023-04-17T23:01:01.347Z,76.50
2023-04-17T23:03:29.084Z,74.30
2023-04-17T23:05:57.345Z,73.80
2023-04-17T23:08:26.410Z,75.40
2023-04-17T23:10:59.594Z,75.40
2023-04-17T23:13:27.699Z,74.40
2023-04-17T23:15:55.630Z,75.20
2023-04-17T23:18:23.459Z,75.60
2023-04-17T23:20:51.352Z,76.30
2023-04-17T23:23:19.298Z,75.40
2023-04-17T23:25:48.372Z,74.50
2023-04-17T23:28:16.122Z,74.70
2023-04-17T23:30:43.880Z,74.00
2023-04-17T23:33:11.652Z,74.70
2023-04-17T23:35:39.380Z,74.40
2023-04-17T23:38:07.111Z,74.70
2023-04-17T23:40:36.049Z,75.70
2023-04-17T23:43:05.211Z,76.30
2023-04-17T23:45:32.894Z,76.10
2023-04-17T23:48:00.743Z,75.60
2023-04-17T23:50:28.565Z,76.00
2023-04-17T23:52:56.248Z,75.70
2023-04-17T23:55:25.715Z,75.20
2023-04-17T23:57:53.701Z,74.40
